• Join FlightAware (Why Join?)
  • Login
  • US Flag 
03:21AM EDT


 

Airport Tracker/Info


-or-


 

Live Flight TrackerFlight Track Log ✈ N27XP ✈ 13-Jun-2014 ✈ KMTV - KGGE

Flight Track Log - Related Links

Times and Time Zones

All times are in EDT time to prevent confusion due to time zone crossing. See the N27XP flight status page for this flight to view local times or setup timezone preferences in your user account.

Time Position Orientation Groundspeed Altitude Reporting Facility
EDT Latitude Longitude Course Direction KTS MPH feet Rate Location/Type
01:44PM 36.1452 -79.9126 170° South  Level Estimated
01:45PM 36.0643 -79.8951 170° South  Level Estimated
01:46PM 35.9833 -79.8776 170° South  Level Estimated
01:47PM 35.9024 -79.8602 170° South  Level Estimated
01:48PM 35.8214 -79.8428 170° South  Level Estimated
01:49PM 35.7405 -79.8254 170° South  Level Estimated
01:50PM 35.6595 -79.8081 170° South  Level Estimated
01:51PM 35.5786 -79.7908 170° South  Level Estimated
01:52PM 35.4976 -79.7735 170° South  Level Estimated
01:53PM 35.4167 -79.7563 170° South  Level Estimated
01:54PM 35.3357 -79.7391 170° South  Level Estimated
01:55PM 35.2548 -79.7220 170° South  Level Estimated
01:56PM 35.1738 -79.7048 170° South  Level Estimated
01:57PM 35.0928 -79.6878 170° South  Level Estimated
01:58PM 35.0119 -79.6707 170° South  Level Estimated
01:59PM 34.9309 -79.6537 170° South  Level Estimated
02:00PM 34.8499 -79.6367 170° South  Level Estimated
02:01PM 34.7689 -79.6198 170° South  Level Estimated
02:02PM 34.6880 -79.6029 170° South  Level Estimated
02:03PM 34.6070 -79.5860 170° South  Level Estimated
02:04PM 34.5260 -79.5691 170° South  Level Estimated
02:05PM 34.4450 -79.5523 170° South  Level Estimated
02:05PM 33.8003 -79.3911 170° South 365 420 8,900  Level Jacksonville Center
02:06PM 34.3640 -79.5355 170° South  Level Estimated
02:06PM 33.7144 -79.3772 172° South 340 391 7,300  Level Jacksonville Center
02:07PM 34.2831 -79.5188 170° South  Level Estimated
02:07PM 33.6431 -79.3650 172° South 309 356 5,500  Level Jacksonville Center
02:08PM 34.2020 -79.5021 170° South  Level Estimated
02:08PM 33.5678 -79.3581 176° South 297 342 3,600  Level Jacksonville Center
02:09PM 34.1211 -79.4854 170° South  Level Estimated
02:09PM 33.4944 -79.3436 171° South 279 321 2,500  Level Jacksonville Center
02:10PM 34.0401 -79.4687 170° South  Level Estimated
02:10PM 33.4064 -79.3272 171° South 279 321 2,300  Level Jacksonville Center
02:12PM 33.3114 -79.3203 177° South  Level Estimated
02:19PM 33.3114 -79.3203 North  Level Estimated
02:20PM 33.3114 -79.3203 North  Level Estimated
02:21PM 33.3114 -79.3203 North  Level Estimated
02:22PM 33.3114 -79.3203 North  Level Estimated
02:23PM 33.3114 -79.3203 North  Level Estimated
02:24PM 33.3114 -79.3203 North  Level Estimated
02:25PM 33.3114 -79.3203 North  Level Estimated
02:26PM 33.3114 -79.3203 North  Level Estimated
02:27PM 33.3114 -79.3203 North  Level Estimated
02:28PM 33.3114 -79.3203 North  Level Estimated
02:29PM 33.3114 -79.3203 North  Level Estimated
02:30PM 33.3114 -79.3203 North  Level Estimated
02:31PM 33.3114 -79.3203 North  Level Estimated
02:32PM 33.3114 -79.3203 North  Level Estimated
02:33PM 33.3114 -79.3203 North  Level Estimated
02:34PM 33.3114 -79.3203 North  Level Estimated
02:35PM 33.3114 -79.3203 North  Level Estimated